Time;durP1;ratioP1;P1;durP2;ratioP2;P2;SDS_P1;SDS_P2;PMS_P1;PMS_P2;Temp;Humidity;BMP_temperature;BMP_pressure;BME280_temperature;BME280_humidity;BME280_pressure;Samples;Min_cycle;Max_cycle;Signal;HPM_P1;HPM_P2
2022/07/12 00:01:24;;;;;;;2.53;2.33;;;22.70;59.10;24.00;101601.00;;;;5066451;28;20253;-44
2022/07/12 00:03:50;;;;;;;2.70;2.43;;;22.80;59.10;24.00;101604.00;;;;5066438;28;20170;-44
2022/07/12 00:06:15;;;;;;;2.57;2.37;;;22.70;59.00;24.00;101599.00;;;;5066127;28;20209;-44
2022/07/12 00:08:41;;;;;;;2.90;2.70;;;22.70;59.10;23.90;101599.00;;;;5066152;28;20200;-44
2022/07/12 00:11:07;;;;;;;2.70;2.50;;;22.70;59.00;23.90;101592.00;;;;5066430;28;20185;-44
2022/07/12 00:13:33;;;;;;;2.63;2.43;;;22.70;58.90;23.90;101594.00;;;;5066227;28;20174;-44
2022/07/12 00:15:58;;;;;;;2.40;2.30;;;22.70;58.90;23.90;101594.00;;;;5066202;28;20173;-43
2022/07/12 00:18:24;;;;;;;3.40;2.77;;;22.60;58.80;23.90;101591.00;;;;5066323;28;20191;-45
2022/07/12 00:20:50;;;;;;;2.70;2.50;;;22.60;58.90;23.90;101597.00;;;;5074865;28;20170;-45
2022/07/12 00:23:16;;;;;;;3.07;2.40;;;22.60;58.80;23.80;101591.00;;;;5081197;28;20161;-45
2022/07/12 00:25:42;;;;;;;2.50;2.30;;;22.60;58.80;23.80;101588.00;;;;5066402;28;20760;-44
2022/07/12 00:28:08;;;;;;;3.33;2.60;;;22.60;58.80;23.80;101586.00;;;;5065573;28;20205;-44
2022/07/12 00:30:34;;;;;;;3.33;2.50;;;22.50;58.80;23.80;101580.00;;;;5067262;28;20193;-44
2022/07/12 00:32:59;;;;;;;2.60;2.40;;;22.60;58.90;23.70;101581.00;;;;5066721;28;20212;-44
2022/07/12 00:35:25;;;;;;;2.60;2.40;;;22.60;58.80;23.70;101576.00;;;;5065956;28;20176;-44
2022/07/12 00:37:51;;;;;;;2.80;2.60;;;22.50;58.70;23.70;101578.00;;;;5065724;28;20197;-44
2022/07/12 00:40:17;;;;;;;3.07;2.60;;;22.50;58.70;23.70;101575.00;;;;5066095;28;20637;-44
2022/07/12 00:42:42;;;;;;;2.93;2.40;;;22.50;58.70;23.70;101580.00;;;;5065909;28;20181;-45
2022/07/12 00:45:09;;;;;;;2.50;2.30;;;22.50;58.70;23.70;101585.00;;;;5065909;28;20703;-46
2022/07/12 00:47:44;;;;;;;2.60;2.40;;;22.50;58.70;23.70;101587.00;;;;5065848;28;20213;-44
2022/07/12 00:50:15;;;;;;;2.60;2.40;;;22.50;58.70;23.60;101578.00;;;;5066237;28;20157;-43
2022/07/12 00:52:42;;;;;;;2.63;2.40;;;22.50;58.70;23.60;101569.00;;;;5065671;28;20169;-44
2022/07/12 00:55:08;;;;;;;2.70;2.50;;;22.50;58.70;23.60;101564.00;;;;5066490;28;20177;-44
2022/07/12 00:57:35;;;;;;;3.30;2.60;;;22.40;58.70;23.60;101573.00;;;;5069186;28;20708;-44
2022/07/12 01:00:02;;;;;;;2.83;2.40;;;22.40;58.80;23.60;101570.00;;;;5069909;28;20182;-43
2022/07/12 01:02:28;;;;;;;2.40;2.30;;;22.30;58.80;23.60;101557.00;;;;5069754;28;20176;-44
2022/07/12 01:04:54;;;;;;;2.43;2.13;;;22.40;58.80;23.50;101544.00;;;;5069668;28;20177;-44
2022/07/12 01:07:20;;;;;;;3.20;2.70;;;22.40;58.70;23.50;101555.00;;;;5068236;28;20332;-44
2022/07/12 01:09:45;;;;;;;2.60;2.40;;;22.30;58.60;23.50;101562.00;;;;5068526;28;20170;-45
2022/07/12 01:12:11;;;;;;;2.30;2.20;;;22.30;58.60;23.50;101567.00;;;;5068384;28;20174;-45
2022/07/12 01:14:39;;;;;;;2.20;2.10;;;22.30;58.60;23.40;101563.00;;;;5069633;28;20192;-45
2022/07/12 01:17:06;;;;;;;2.90;2.43;;;22.30;58.60;23.50;101564.00;;;;5069352;28;20197;-45
2022/07/12 01:19:31;;;;;;;2.30;2.20;;;22.30;58.60;23.40;101558.00;;;;5068160;28;20181;-45
2022/07/12 01:21:57;;;;;;;2.50;2.30;;;22.20;58.50;23.40;101553.00;;;;5068332;28;20174;-45
2022/07/12 01:24:23;;;;;;;2.40;2.23;;;22.20;58.50;23.40;101556.00;;;;5080730;28;20200;-45
2022/07/12 01:26:50;;;;;;;2.63;2.43;;;22.20;58.60;23.40;101557.00;;;;5084110;28;20224;-46
2022/07/12 01:29:15;;;;;;;2.70;2.50;;;22.20;58.50;23.30;101561.00;;;;5079497;28;20211;-45
2022/07/12 01:31:41;;;;;;;2.50;2.30;;;22.20;58.50;23.30;101560.00;;;;5070021;28;20818;-44
2022/07/12 01:34:07;;;;;;;2.67;2.47;;;22.20;58.50;23.30;101562.00;;;;5068530;28;20174;-43
2022/07/12 01:36:33;;;;;;;2.60;2.40;;;22.20;58.50;23.30;101558.00;;;;5068378;28;20703;-43
2022/07/12 01:38:59;;;;;;;2.20;2.10;;;22.20;58.50;23.30;101570.00;;;;5069222;28;20169;-44
2022/07/12 01:41:25;;;;;;;2.73;2.53;;;22.10;58.50;23.20;101573.00;;;;5068108;28;20185;-43
2022/07/12 01:43:52;;;;;;;2.40;2.20;;;22.10;58.50;23.20;101565.00;;;;5069177;28;20643;-46
2022/07/12 01:46:18;;;;;;;2.60;2.40;;;22.10;58.50;23.20;101569.00;;;;5068796;28;20546;-45
2022/07/12 01:48:44;;;;;;;2.50;2.30;;;22.10;58.50;23.20;101569.00;;;;5068698;28;20194;-44
2022/07/12 01:51:09;;;;;;;2.30;2.10;;;22.10;58.50;23.20;101566.00;;;;5067841;28;20654;-44
2022/07/12 01:53:36;;;;;;;2.10;2.00;;;22.10;58.50;23.20;101567.00;;;;5069019;28;20252;-43
2022/07/12 01:56:06;;;;;;;2.50;2.30;;;22.00;59.20;23.10;101564.00;;;;5067861;28;20576;-44
2022/07/12 01:58:31;;;;;;;2.47;2.27;;;22.00;58.70;23.10;101564.00;;;;5067287;28;20193;-46
2022/07/12 02:00:57;;;;;;;2.50;2.30;;;22.00;58.80;23.10;101564.00;;;;5071404;28;20178;-45
2022/07/12 02:03:23;;;;;;;2.50;2.30;;;21.90;58.90;23.00;101573.00;;;;5068164;28;20166;-44
2022/07/12 02:05:49;;;;;;;2.43;2.30;;;21.80;59.30;23.00;101568.00;;;;5067643;28;20608;-44
2022/07/12 02:08:15;;;;;;;2.60;2.40;;;21.80;59.30;23.00;101576.00;;;;5068113;28;20681;-45
2022/07/12 02:10:42;;;;;;;2.80;2.60;;;21.80;59.30;23.00;101580.00;;;;5068551;28;20683;-44
2022/07/12 02:13:07;;;;;;;2.90;2.53;;;21.90;59.20;23.00;101578.00;;;;5068206;28;20176;-44
2022/07/12 02:15:33;;;;;;;2.30;2.20;;;21.90;59.10;23.00;101585.00;;;;5068678;28;20166;-44
2022/07/12 02:17:59;;;;;;;2.47;2.27;;;21.90;58.90;23.00;101585.00;;;;5068508;28;20220;-44
2022/07/12 02:20:25;;;;;;;2.23;2.13;;;21.90;58.80;23.00;101585.00;;;;5068381;28;20195;-44
2022/07/12 02:22:50;;;;;;;2.63;2.43;;;21.90;58.80;22.90;101589.00;;;;5068223;28;20181;-44
2022/07/12 02:25:16;;;;;;;2.57;2.33;;;21.90;58.80;22.90;101581.00;;;;5068046;28;20639;-43
2022/07/12 02:27:42;;;;;;;2.80;2.60;;;21.90;59.40;22.90;101582.00;;;;5070539;28;20216;-43
2022/07/12 02:30:09;;;;;;;3.00;2.47;;;21.90;58.70;22.90;101584.00;;;;5068053;28;20795;-44
2022/07/12 02:32:36;;;;;;;2.50;2.30;;;21.90;58.70;22.90;101590.00;;;;5067909;28;20545;-44
2022/07/12 02:35:02;;;;;;;2.80;2.60;;;21.80;58.60;22.90;101598.00;;;;5068347;28;20169;-44
2022/07/12 02:37:28;;;;;;;2.57;2.37;;;21.80;58.60;22.90;101478.00;;;;5067867;28;20213;-45
2022/07/12 02:42:45;;;;;;;2.57;2.40;;;21.80;58.60;22.80;101590.00;;;;5066620;28;20220;-44
2022/07/12 02:45:11;;;;;;;2.77;2.50;;;21.80;58.40;22.80;101584.00;;;;5066724;28;20791;-45
2022/07/12 02:47:39;;;;;;;2.90;2.40;;;21.80;58.40;22.80;101594.00;;;;5067590;28;20214;-45
2022/07/12 02:50:06;;;;;;;2.50;2.30;;;21.80;58.40;22.80;101600.00;;;;5067971;28;20567;-44
2022/07/12 02:52:32;;;;;;;4.13;2.60;;;21.80;58.30;22.80;101597.00;;;;5067809;28;20177;-45
2022/07/12 02:54:57;;;;;;;3.00;2.50;;;21.80;58.30;22.80;101605.00;;;;5067755;28;20642;-43
2022/07/12 02:57:23;;;;;;;2.83;2.63;;;21.70;58.20;22.70;101602.00;;;;5067394;28;20220;-43
2022/07/12 02:59:49;;;;;;;2.57;2.37;;;21.70;58.20;22.70;101606.00;;;;5067702;28;20170;-44
2022/07/12 03:02:15;;;;;;;2.60;2.40;;;21.70;58.20;22.70;101532.00;;;;5067872;28;20182;-44
2022/07/12 03:04:41;;;;;;;2.50;2.30;;;21.70;58.20;22.70;101605.00;;;;5067081;28;20180;-45
2022/07/12 03:07:07;;;;;;;2.50;2.30;;;21.70;58.20;22.70;101612.00;;;;5067320;28;20205;-44
2022/07/12 03:09:32;;;;;;;2.63;2.40;;;21.70;58.20;22.70;101604.00;;;;5067105;28;20289;-44
2022/07/12 03:11:58;;;;;;;2.50;2.30;;;21.70;58.20;22.70;101597.00;;;;5067399;28;20205;-45
2022/07/12 03:14:24;;;;;;;2.93;2.63;;;21.60;58.00;22.60;101608.00;;;;5067708;28;20256;-44
2022/07/12 03:16:49;;;;;;;2.67;2.47;;;21.60;58.10;22.60;101600.00;;;;5067633;28;20251;-48
2022/07/12 03:19:15;;;;;;;3.07;2.73;;;21.60;58.10;22.60;101601.00;;;;5077202;28;20185;-44
2022/07/12 03:21:42;;;;;;;3.50;2.60;;;21.60;58.20;22.60;101602.00;;;;5077174;28;20548;-44
2022/07/12 03:24:07;;;;;;;3.83;2.40;;;21.50;58.10;22.60;101599.00;;;;5067769;28;20182;-44
2022/07/12 03:26:33;;;;;;;2.77;2.57;;;21.60;58.20;22.60;101602.00;;;;5067260;28;20671;-44
2022/07/12 03:29:02;;;;;;;3.20;2.63;;;21.50;58.10;22.50;101602.00;;;;5065841;28;20161;-44
2022/07/12 03:31:28;;;;;;;2.83;2.57;;;21.50;58.20;22.50;101600.00;;;;5065925;28;20174;-44
2022/07/12 03:33:54;;;;;;;2.83;2.40;;;21.50;58.10;22.50;101599.00;;;;5068624;28;20180;-44
2022/07/12 03:36:20;;;;;;;3.83;2.53;;;21.50;58.00;22.50;101614.00;;;;5066867;28;20224;-44
2022/07/12 03:38:46;;;;;;;2.80;2.50;;;21.40;57.90;22.50;101607.00;;;;5066744;28;20176;-44
2022/07/12 03:41:11;;;;;;;2.60;2.40;;;21.40;57.80;22.50;101608.00;;;;5066534;28;20185;-45
2022/07/12 03:43:37;;;;;;;3.27;2.97;;;21.40;57.90;22.50;101607.00;;;;5066556;28;20193;-45
2022/07/12 03:46:03;;;;;;;5.30;4.90;;;21.40;57.80;22.40;101600.00;;;;5066920;28;20208;-44
2022/07/12 03:48:29;;;;;;;6.83;6.20;;;21.40;57.90;22.40;101609.00;;;;5066420;28;20542;-45
2022/07/12 03:50:55;;;;;;;5.00;4.60;;;21.40;57.80;22.40;101613.00;;;;5066376;28;20231;-44
2022/07/12 03:53:21;;;;;;;4.40;4.00;;;21.40;57.80;22.40;101605.00;;;;5066334;28;20252;-45
2022/07/12 03:55:47;;;;;;;4.10;3.03;;;21.40;57.80;22.40;101601.00;;;;5065294;28;20248;-44
2022/07/12 03:58:13;;;;;;;5.23;4.83;;;21.40;57.80;22.30;101603.00;;;;5066090;28;20196;-44
2022/07/12 04:00:40;;;;;;;9.73;8.83;;;21.30;57.80;22.30;101609.00;;;;5066223;28;20180;-44
2022/07/12 04:03:06;;;;;;;5.90;5.40;;;21.30;57.80;22.30;101600.00;;;;5066141;28;20180;-44
2022/07/12 04:05:31;;;;;;;4.70;4.30;;;21.30;57.80;22.30;101606.00;;;;5064897;28;20259;-44
2022/07/12 04:07:57;;;;;;;4.17;3.77;;;21.30;57.80;22.30;101591.00;;;;5065712;28;20615;-45
2022/07/12 04:10:23;;;;;;;3.70;3.40;;;21.30;57.80;22.30;101603.00;;;;5064880;28;20776;-45
2022/07/12 04:12:49;;;;;;;4.93;3.53;;;21.30;57.80;22.30;101600.00;;;;5065870;28;20164;-45
2022/07/12 04:15:14;;;;;;;3.60;3.30;;;21.20;57.70;22.30;101616.00;;;;5074035;28;20180;-44
2022/07/12 04:17:41;;;;;;;3.40;3.10;;;21.20;57.70;22.20;101624.00;;;;5067450;28;20676;-44
2022/07/12 04:20:09;;;;;;;3.43;3.13;;;21.20;57.70;22.20;101607.00;;;;5066260;28;20173;-44
2022/07/12 04:22:35;;;;;;;3.23;3.00;;;21.20;57.70;22.20;101619.00;;;;5065716;28;20181;-44
2022/07/12 04:25:01;;;;;;;3.13;2.83;;;21.20;57.70;22.20;101622.00;;;;5066003;28;20636;-44
2022/07/12 04:27:27;;;;;;;3.60;3.30;;;21.20;57.70;21.90;101622.00;;;;5065861;28;20195;-44
2022/07/12 04:29:53;;;;;;;3.30;3.00;;;21.20;57.70;22.20;101620.00;;;;5065518;28;20798;-45
2022/07/12 04:32:18;;;;;;;3.37;3.07;;;21.10;57.60;22.10;101625.00;;;;5074327;28;20204;-45
2022/07/12 04:34:44;;;;;;;3.43;3.13;;;21.20;57.70;22.10;101621.00;;;;5066832;28;20186;-46
2022/07/12 04:37:10;;;;;;;3.10;2.90;;;21.10;57.60;22.10;101618.00;;;;5066610;28;20869;-44
2022/07/12 04:39:36;;;;;;;3.47;3.17;;;21.10;57.60;22.10;101624.00;;;;5065429;28;20168;-43
2022/07/12 04:42:02;;;;;;;2.83;2.63;;;21.10;57.70;22.10;101623.00;;;;5068035;28;20853;-46
2022/07/12 04:44:28;;;;;;;3.17;2.90;;;21.10;57.80;22.00;101626.00;;;;5065424;28;20181;-45
2022/07/12 04:46:53;;;;;;;3.10;2.90;;;21.20;58.00;22.00;101625.00;;;;5065622;28;20228;-43
2022/07/12 04:49:19;;;;;;;3.57;3.10;;;21.10;58.00;22.00;101630.00;;;;5065557;28;20245;-44
2022/07/12 04:51:45;;;;;;;3.80;2.90;;;21.10;58.00;22.00;101627.00;;;;5068403;28;20180;-44
2022/07/12 04:54:11;;;;;;;6.07;2.90;;;21.10;58.00;22.00;101627.00;;;;5065770;28;20165;-44
2022/07/12 04:56:37;;;;;;;4.53;2.90;;;21.10;58.00;22.00;101618.00;;;;5067781;28;20705;-45
2022/07/12 04:59:03;;;;;;;2.93;2.73;;;21.10;58.00;22.00;101629.00;;;;5065406;28;20178;-44
2022/07/12 05:01:29;;;;;;;2.97;2.67;;;21.10;58.00;21.90;101631.00;;;;5070097;28;20173;-43
2022/07/12 05:03:55;;;;;;;3.13;2.83;;;21.10;58.00;21.90;101639.00;;;;5069261;28;20158;-44
2022/07/12 05:06:22;;;;;;;2.90;2.70;;;21.00;57.90;21.90;101629.00;;;;5067812;28;20184;-44
2022/07/12 05:08:48;;;;;;;2.80;2.60;;;21.10;58.00;21.90;101637.00;;;;5065109;28;20198;-44
2022/07/12 05:11:14;;;;;;;3.47;2.80;;;21.00;58.00;21.90;101633.00;;;;5064675;28;20165;-45
2022/07/12 05:13:40;;;;;;;3.00;2.70;;;21.00;58.20;21.90;101637.00;;;;5065482;28;20250;-44
2022/07/12 05:16:07;;;;;;;3.57;2.90;;;21.00;58.10;21.90;101647.00;;;;5065422;28;20196;-44
2022/07/12 05:18:34;;;;;;;3.10;2.80;;;21.00;58.20;21.90;101645.00;;;;5065058;28;20743;-44
2022/07/12 05:20:59;;;;;;;2.80;2.60;;;21.00;58.40;21.90;101645.00;;;;5065112;28;20267;-44
2022/07/12 05:23:25;;;;;;;2.97;2.77;;;21.00;58.30;21.90;101647.00;;;;5065863;28;20310;-44
2022/07/12 05:25:51;;;;;;;3.97;2.80;;;21.00;58.30;21.80;101649.00;;;;5065075;28;20668;-45
2022/07/12 05:28:17;;;;;;;2.80;2.60;;;21.00;58.50;21.80;101650.00;;;;5064907;28;20198;-44
2022/07/12 05:30:43;;;;;;;2.73;2.50;;;21.00;58.40;21.80;101646.00;;;;5064656;28;20158;-44
2022/07/12 05:33:09;;;;;;;2.80;2.60;;;21.00;58.40;21.70;101651.00;;;;5065503;28;20169;-45
2022/07/12 05:35:35;;;;;;;2.90;2.70;;;21.00;58.40;21.70;101656.00;;;;5065306;28;20670;-43
2022/07/12 05:38:01;;;;;;;2.50;2.30;;;20.90;58.50;21.70;101658.00;;;;5063829;28;20200;-44
2022/07/12 05:40:27;;;;;;;2.77;2.57;;;20.90;58.50;21.70;101658.00;;;;5065568;28;20573;-45
2022/07/12 05:42:52;;;;;;;2.67;2.47;;;20.90;58.60;21.70;101666.00;;;;5071143;28;20215;-44
2022/07/12 05:45:18;;;;;;;2.60;2.40;;;20.90;58.60;21.70;101647.00;;;;5068816;28;20238;-45
2022/07/12 05:47:45;;;;;;;4.40;2.50;;;20.90;58.80;21.60;101644.00;;;;5068433;28;20648;-44
2022/07/12 05:50:10;;;;;;;2.90;2.50;;;20.80;58.80;21.70;101649.00;;;;5068757;28;20260;-44
2022/07/12 05:55:20;;;;;;;2.60;2.40;;;20.80;59.10;21.70;101648.00;;;;5069262;28;20247;-46
2022/07/12 05:57:46;;;;;;;3.43;2.50;;;20.80;59.20;21.60;101641.00;;;;5068952;28;20270;-44
2022/07/12 06:00:12;;;;;;;2.80;2.60;;;20.70;59.20;21.60;101635.00;;;;5069003;28;20256;-44
2022/07/12 06:02:38;;;;;;;3.00;2.80;;;20.70;59.30;21.70;101643.00;;;;5067752;28;20176;-44
2022/07/12 06:05:04;;;;;;;2.60;2.40;;;20.80;59.80;21.60;101638.00;;;;5068735;28;20190;-44
2022/07/12 06:07:29;;;;;;;3.00;2.80;;;20.80;59.50;21.60;101645.00;;;;5068016;28;20209;-44
2022/07/12 06:09:55;;;;;;;3.67;2.93;;;20.70;59.40;21.60;101655.00;;;;5068483;28;20168;-44
2022/07/12 06:12:21;;;;;;;3.00;2.80;;;20.70;60.00;21.60;101649.00;;;;5068538;28;20178;-44
2022/07/12 06:14:48;;;;;;;3.87;3.53;;;20.70;59.90;21.70;101637.00;;;;5070718;28;20636;-44
2022/07/12 06:17:14;;;;;;;4.57;4.27;;;20.80;61.00;21.70;101633.00;;;;5070538;28;20210;-45
2022/07/12 06:19:39;;;;;;;4.53;4.23;;;20.90;61.10;21.70;101640.00;;;;5092700;28;20201;-45
2022/07/12 06:22:05;;;;;;;4.70;4.40;;;20.80;63.00;21.70;101649.00;;;;5075840;28;20174;-45
2022/07/12 06:24:31;;;;;;;5.27;4.87;;;20.90;61.70;21.70;101649.00;;;;5068187;28;20261;-44
2022/07/12 06:26:56;;;;;;;5.73;5.23;;;20.90;62.20;21.70;101648.00;;;;5068168;28;20207;-43
2022/07/12 06:29:22;;;;;;;5.07;4.67;;;20.90;62.60;21.70;101645.00;;;;5067774;28;20532;-43
2022/07/12 06:31:48;;;;;;;5.77;5.27;;;20.90;62.50;21.70;101652.00;;;;5067348;28;20810;-45
2022/07/12 06:34:14;;;;;;;6.60;6.10;;;20.90;64.20;21.70;101636.00;;;;5067795;28;20550;-44
2022/07/12 06:36:43;;;;;;;5.60;5.20;;;20.90;65.00;21.60;101658.00;;;;5067777;28;20740;-45
2022/07/12 06:39:09;;;;;;;5.57;5.07;;;20.90;63.90;21.70;101659.00;;;;5067707;28;20182;-45
2022/07/12 06:41:35;;;;;;;5.83;5.20;;;20.90;63.10;21.60;101667.00;;;;5067576;28;20162;-48
2022/07/12 06:44:00;;;;;;;6.10;5.60;;;20.80;63.40;21.60;101668.00;;;;5067661;28;20850;-43
2022/07/12 06:46:26;;;;;;;5.27;4.77;;;20.80;63.50;21.60;101670.00;;;;5067245;28;20227;-44
2022/07/12 06:48:52;;;;;;;5.47;4.97;;;20.80;63.80;21.60;101685.00;;;;5067353;28;20228;-44
2022/07/12 06:51:17;;;;;;;5.33;4.93;;;20.80;63.60;21.60;101683.00;;;;5067320;28;20177;-44
2022/07/12 06:53:43;;;;;;;5.67;5.17;;;20.80;63.70;21.60;101685.00;;;;5066756;28;20164;-44
2022/07/12 06:56:09;;;;;;;5.30;4.90;;;20.70;63.50;21.60;101689.00;;;;5067555;28;20172;-44
2022/07/12 06:58:35;;;;;;;5.33;4.93;;;20.70;64.20;21.60;101684.00;;;;5067177;28;20260;-46
2022/07/12 07:01:00;;;;;;;5.60;5.10;;;20.70;64.50;21.60;101701.00;;;;5067249;28;20187;-45
2022/07/12 07:03:26;;;;;;;6.10;5.57;;;20.60;64.60;21.60;101704.00;;;;5066993;28;20224;-44
2022/07/12 07:05:52;;;;;;;6.03;5.53;;;20.70;64.70;21.60;101706.00;;;;5067215;28;20183;-45
2022/07/12 07:08:18;;;;;;;6.60;6.00;;;20.70;64.70;21.60;101715.00;;;;5066982;28;20257;-44
2022/07/12 07:10:43;;;;;;;5.70;5.30;;;20.80;64.90;21.70;101727.00;;;;5066993;28;20588;-46
2022/07/12 07:13:10;;;;;;;6.17;5.70;;;20.90;64.60;21.70;101720.00;;;;5068077;28;20880;-45
2022/07/12 07:15:39;;;;;;;6.77;6.13;;;20.80;64.70;21.70;101712.00;;;;5066885;28;20201;-45
2022/07/12 07:18:05;;;;;;;6.57;6.07;;;20.80;64.70;21.70;101723.00;;;;5066401;28;20265;-44
2022/07/12 07:20:30;;;;;;;6.23;5.73;;;20.90;65.00;21.70;101706.00;;;;5066818;28;20261;-45
2022/07/12 07:22:56;;;;;;;6.37;5.83;;;20.90;65.00;21.70;101711.00;;;;5011092;28;20281;-46
2022/07/12 07:25:22;;;;;;;6.87;6.30;;;20.90;64.70;21.70;101705.00;;;;5066976;28;20241;-44
2022/07/12 07:27:48;;;;;;;6.63;6.13;;;20.90;66.00;21.70;101710.00;;;;5086999;28;20204;-44
2022/07/12 07:32:58;;;;;;;6.13;5.60;;;20.90;65.60;21.80;101711.00;;;;5087524;28;20172;-44
2022/07/12 07:35:23;;;;;;;5.90;5.50;;;21.00;66.40;21.80;101704.00;;;;5086942;28;20166;-43
2022/07/12 07:37:49;;;;;;;5.97;5.57;;;20.90;66.00;21.80;101707.00;;;;5085318;28;20193;-44
2022/07/12 07:40:15;;;;;;;6.27;5.67;;;20.90;66.00;21.80;101703.00;;;;5086829;28;20181;-44
2022/07/12 07:42:41;;;;;;;6.00;5.50;;;21.00;65.90;21.80;101715.00;;;;5090068;28;20179;-44
2022/07/12 07:45:08;;;;;;;6.23;5.67;;;20.90;67.40;21.80;101712.00;;;;5107395;28;20177;-43
2022/07/12 07:47:48;;;;;;;5.70;5.30;;;20.90;68.10;21.90;101717.00;;;;4982140;28;20235;-48
2022/07/12 07:50:14;;;;;;;6.03;5.53;;;21.00;68.20;21.90;101718.00;;;;5066786;28;20215;-43
2022/07/12 07:52:40;;;;;;;6.63;5.80;;;21.00;68.70;21.90;101720.00;;;;5066204;28;20161;-44
2022/07/12 07:55:06;;;;;;;6.50;6.00;;;21.00;68.90;21.80;101721.00;;;;5066508;28;20180;-44
2022/07/12 07:57:32;;;;;;;6.60;6.00;;;21.00;69.40;21.90;101718.00;;;;5066117;28;20897;-44
2022/07/12 07:59:58;;;;;;;6.53;5.93;;;21.00;69.40;21.90;101705.00;;;;5066261;28;20206;-43
2022/07/12 08:02:24;;;;;;;10.20;6.30;;;21.00;69.60;21.90;101694.00;;;;5065852;28;20209;-44
2022/07/12 08:04:50;;;;;;;6.50;5.73;;;21.00;69.50;21.90;101705.00;;;;5064196;28;20182;-44
2022/07/12 08:07:16;;;;;;;6.60;6.00;;;21.00;69.70;21.90;101703.00;;;;5065872;28;20288;-44
2022/07/12 08:09:42;;;;;;;7.23;5.90;;;21.10;69.60;21.90;101699.00;;;;5066210;28;20278;-46
2022/07/12 08:12:08;;;;;;;7.17;6.47;;;21.00;69.90;21.90;101701.00;;;;5067444;28;20169;-43
2022/07/12 08:14:33;;;;;;;8.53;6.07;;;21.10;70.50;22.00;101704.00;;;;5069978;28;20166;-44
2022/07/12 08:16:59;;;;;;;9.20;7.00;;;21.10;70.50;22.00;101700.00;;;;5070844;28;20838;-45
2022/07/12 08:19:25;;;;;;;12.50;6.80;;;21.20;70.80;22.00;101701.00;;;;5106174;28;20557;-44
2022/07/12 08:21:51;;;;;;;8.47;6.23;;;21.20;71.30;22.00;101712.00;;;;5106832;28;20176;-44
2022/07/12 08:24:16;;;;;;;8.60;6.70;;;21.20;72.50;22.00;101704.00;;;;5106362;28;20367;-43
2022/07/12 08:26:42;;;;;;;7.10;6.00;;;21.30;71.60;22.00;101716.00;;;;5106460;28;20192;-44
2022/07/12 08:29:08;;;;;;;10.27;5.60;;;21.30;71.80;22.00;101706.00;;;;5105953;27;20236;-44
2022/07/12 08:31:34;;;;;;;9.87;6.00;;;21.30;71.80;22.10;101698.00;;;;5107494;28;20169;-43
2022/07/12 08:34:00;;;;;;;7.10;5.50;;;21.30;71.70;22.10;101699.00;;;;5107120;28;20179;-43
2022/07/12 08:36:25;;;;;;;5.87;4.90;;;21.30;71.50;22.10;101682.00;;;;5106414;28;20689;-44
2022/07/12 08:38:51;;;;;;;7.50;5.00;;;21.30;71.50;22.10;101699.00;;;;5089718;28;20557;-44
2022/07/12 08:41:17;;;;;;;5.30;4.70;;;21.30;71.50;22.10;101689.00;;;;5087654;28;20811;-44
2022/07/12 08:43:43;;;;;;;6.07;4.80;;;21.40;71.60;22.10;101696.00;;;;5087535;28;20653;-44
2022/07/12 08:46:10;;;;;;;5.57;4.60;;;21.40;71.50;22.20;101691.00;;;;5083444;28;20182;-44
2022/07/12 08:48:37;;;;;;;8.03;4.90;;;21.40;71.60;22.20;101684.00;;;;5084147;28;20202;-45
2022/07/12 08:51:05;;;;;;;6.57;4.30;;;21.40;71.60;22.20;101684.00;;;;5084849;28;20169;-44
2022/07/12 08:53:31;;;;;;;5.50;4.30;;;21.40;71.70;22.20;101679.00;;;;5086055;28;20167;-43
2022/07/12 08:55:57;;;;;;;4.17;3.77;;;21.40;71.70;22.20;101678.00;;;;5085906;28;20176;-44
2022/07/12 08:58:23;;;;;;;5.13;4.07;;;21.40;71.60;22.20;101673.00;;;;5085542;28;20249;-44
2022/07/12 09:00:49;;;;;;;7.50;4.27;;;21.40;71.80;22.20;101676.00;;;;5086596;28;20362;-44
2022/07/12 09:03:15;;;;;;;5.10;3.90;;;21.40;71.50;22.20;101681.00;;;;5087380;28;20172;-44
2022/07/12 09:05:57;;;;;;;5.07;4.00;;;21.50;71.60;22.30;101678.00;;;;5093597;28;20387;-44
2022/07/12 09:08:33;;;;;;;4.63;3.77;;;21.50;71.90;22.30;101674.00;;;;5106583;28;20208;-43
2022/07/12 09:11:00;;;;;;;4.07;3.77;;;21.50;72.00;22.30;101671.00;;;;5097846;28;20167;-43
2022/07/12 09:13:52;;;;;;;4.97;3.60;;;21.50;72.00;22.30;101677.00;;;;5085819;28;20669;-44
2022/07/12 09:16:20;;;;;;;5.13;3.90;;;21.60;72.30;22.30;101684.00;;;;5088073;28;20171;-43
2022/07/12 09:18:46;;;;;;;4.00;3.60;;;21.60;72.20;22.30;101675.00;;;;5089342;28;20168;-45
2022/07/12 09:21:29;;;;;;;4.10;3.70;;;21.60;72.10;22.40;101680.00;;;;5090031;28;20539;-44
2022/07/12 09:23:56;;;;;;;4.10;3.80;;;21.60;72.00;22.30;101670.00;;;;5089900;28;20195;-44
2022/07/12 09:26:23;;;;;;;3.97;3.67;;;21.60;72.00;22.40;101676.00;;;;5090014;28;20287;-43
2022/07/12 09:28:50;;;;;;;3.93;3.53;;;21.60;72.30;22.40;101669.00;;;;5089564;28;20703;-44
2022/07/12 09:31:16;;;;;;;3.80;3.50;;;21.60;72.20;22.40;101674.00;;;;5089687;28;20168;-43
2022/07/12 09:36:25;;;;;;;3.80;3.47;;;21.70;72.40;22.40;101677.00;;;;5088476;28;20202;-44
2022/07/12 09:38:53;;;;;;;3.83;3.50;;;21.70;72.30;22.50;101673.00;;;;5089184;28;20657;-43
2022/07/12 09:41:22;;;;;;;3.53;3.30;;;21.70;72.30;22.50;101671.00;;;;5089396;28;20401;-43
2022/07/12 09:43:51;;;;;;;3.50;3.20;;;21.70;72.30;22.50;101673.00;;;;5089444;28;20193;-44
2022/07/12 09:46:17;;;;;;;3.77;3.37;;;21.80;72.50;22.50;101681.00;;;;5070936;28;20192;-45
2022/07/12 09:48:44;;;;;;;3.40;3.10;;;21.80;72.40;22.50;101672.00;;;;5089206;28;20224;-43
2022/07/12 09:51:13;;;;;;;3.13;2.93;;;21.80;72.60;22.60;101683.00;;;;5089822;28;20168;-44
2022/07/12 09:53:44;;;;;;;3.13;2.83;;;21.80;72.50;22.60;101679.00;;;;5088477;28;20248;-44
2022/07/12 09:56:12;;;;;;;3.40;3.10;;;21.80;72.50;22.60;101678.00;;;;5089696;28;20223;-45
2022/07/12 09:58:59;;;;;;;3.07;2.80;;;21.90;72.50;22.60;101673.00;;;;5090799;28;20173;-44
2022/07/12 10:01:25;;;;;;;3.53;3.23;;;21.90;72.30;22.70;101619.00;;;;5090019;28;20357;-44
2022/07/12 10:03:52;;;;;;;3.40;3.10;;;21.90;72.60;22.70;101678.00;;;;5089092;28;20270;-44
2022/07/12 10:06:28;;;;;;;3.03;2.83;;;21.90;72.50;22.70;101673.00;;;;5087766;28;20279;-44
2022/07/12 10:08:55;;;;;;;3.27;3.00;;;22.00;73.00;22.70;101682.00;;;;5088649;28;20334;-44
2022/07/12 10:11:22;;;;;;;2.90;2.70;;;22.00;72.40;22.70;101682.00;;;;5089056;28;20248;-43
2022/07/12 10:13:48;;;;;;;3.20;3.00;;;22.00;72.50;22.80;101673.00;;;;5087796;28;20175;-44
2022/07/12 10:16:14;;;;;;;3.10;2.90;;;22.00;72.60;22.80;101667.00;;;;5070556;28;20564;-43
2022/07/12 10:18:40;;;;;;;3.00;2.80;;;22.10;72.40;22.80;101680.00;;;;5070524;28;20164;-43
2022/07/12 10:21:19;;;;;;;2.90;2.70;;;22.10;72.10;22.80;101665.00;;;;5088615;28;20180;-44
2022/07/12 10:23:44;;;;;;;2.90;2.70;;;22.10;72.50;22.90;101673.00;;;;5087566;28;20146;-44
2022/07/12 10:26:16;;;;;;;3.03;2.83;;;22.10;72.50;22.90;101669.00;;;;5088602;28;20657;-44
2022/07/12 10:29:07;;;;;;;3.83;2.73;;;22.10;73.00;23.00;101666.00;;;;5087502;28;20220;-45
2022/07/12 10:31:39;;;;;;;4.57;3.03;;;22.20;72.90;23.00;101677.00;;;;5088276;28;20162;-44
2022/07/12 10:34:21;;;;;;;2.80;2.60;;;22.20;72.50;23.00;101676.00;;;;5087623;28;20193;-44
2022/07/12 10:36:55;;;;;;;4.20;2.70;;;22.20;73.00;23.00;101671.00;;;;4994903;28;20197;-44
2022/07/12 10:39:28;;;;;;;3.50;2.83;;;22.30;72.80;23.00;101663.00;;;;5087083;28;20197;-44
2022/07/12 10:42:06;;;;;;;2.87;2.57;;;22.30;73.10;23.10;101665.00;;;;5087022;28;20156;-44
2022/07/12 10:44:50;;;;;;;2.87;2.67;;;22.30;73.30;23.10;101651.00;;;;5089898;28;20171;-44
2022/07/12 10:47:17;;;;;;;2.70;2.50;;;22.30;73.20;23.10;101657.00;;;;5087155;28;20196;-44
2022/07/12 10:49:49;;;;;;;2.80;2.60;;;22.40;73.10;23.10;101659.00;;;;5087690;28;20184;-43
2022/07/12 10:52:17;;;;;;;3.10;2.80;;;22.40;73.20;23.20;101656.00;;;;5099151;28;20172;-45
2022/07/12 10:54:50;;;;;;;2.80;2.50;;;22.40;73.50;23.20;101661.00;;;;5108460;28;20232;-43
2022/07/12 10:57:42;;;;;;;3.07;2.73;;;22.40;73.50;23.30;101658.00;;;;5092450;28;20688;-43